Time;durP1;ratioP1;P1;durP2;ratioP2;P2;SDS_P1;SDS_P2;PMS_P1;PMS_P2;Temp;Humidity;BMP_temperature;BMP_pressure;BME280_temperature;BME280_humidity;BME280_pressure;Samples;Min_cycle;Max_cycle;Signal;HPM_P1;HPM_P2
2020/12/20 00:01:47;;;;;;;31.43;24.53;;;;;;;;;;5008570;28;20178;-58
2020/12/20 00:04:13;;;;;;;28.60;24.27;;;;;;;;;;5002293;28;20705;-58
2020/12/20 00:06:39;;;;;;;31.10;23.33;;;;;;;;;;5011995;28;20187;-58
2020/12/20 00:09:06;;;;;;;32.90;25.47;;;;;;;;;;5007492;28;20188;-58
2020/12/20 00:11:36;;;;;;;29.53;24.97;;;;;;;;;;5008790;28;20656;-58
2020/12/20 00:14:01;;;;;;;31.53;24.43;;;;;;;;;;5005451;28;20643;-57
2020/12/20 00:16:28;;;;;;;30.27;24.08;;;;;;;;;;4995727;28;20637;-59
2020/12/20 00:18:53;;;;;;;29.23;22.93;;;;;;;;;;5011852;28;20661;-58
2020/12/20 00:21:18;;;;;;;29.45;22.50;;;;;;;;;;5008960;28;21151;-58
2020/12/20 00:23:44;;;;;;;28.67;22.98;;;;;;;;;;5005612;28;20203;-58
2020/12/20 00:26:09;;;;;;;30.13;23.37;;;;;;;;;;5007895;28;20255;-59
2020/12/20 00:28:34;;;;;;;31.00;22.75;;;;;;;;;;5009238;28;20172;-58
2020/12/20 00:30:59;;;;;;;30.73;23.10;;;;;;;;;;4998028;28;20184;-58
2020/12/20 00:33:24;;;;;;;34.78;25.63;;;;;;;;;;5005607;28;20657;-58
2020/12/20 00:35:49;;;;;;;31.00;23.92;;;;;;;;;;4994635;28;20178;-58
2020/12/20 00:38:14;;;;;;;29.77;23.73;;;;;;;;;;5011788;28;20229;-58
2020/12/20 00:40:39;;;;;;;30.00;22.53;;;;;;;;;;5010181;28;20198;-58
2020/12/20 00:43:05;;;;;;;34.10;25.08;;;;;;;;;;5007745;28;20809;-59
2020/12/20 00:45:30;;;;;;;32.97;23.42;;;;;;;;;;4996133;28;20179;-58
2020/12/20 00:47:55;;;;;;;30.40;23.02;;;;;;;;;;5006080;28;20223;-58
2020/12/20 00:50:20;;;;;;;28.27;22.67;;;;;;;;;;4993644;28;20546;-59
2020/12/20 00:52:45;;;;;;;34.63;25.80;;;;;;;;;;4996848;28;20179;-58
2020/12/20 00:55:12;;;;;;;37.40;26.80;;;;;;;;;;5007679;28;20285;-59
2020/12/20 00:57:37;;;;;;;36.30;26.37;;;;;;;;;;4998436;28;20234;-59
2020/12/20 01:00:05;;;;;;;33.23;25.50;;;;;;;;;;5009242;28;20744;-58
2020/12/20 01:02:30;;;;;;;32.97;25.03;;;;;;;;;;5009204;28;20174;-59
2020/12/20 01:04:55;;;;;;;31.70;24.98;;;;;;;;;;5000512;28;20681;-58
2020/12/20 01:07:20;;;;;;;30.60;23.77;;;;;;;;;;5004954;28;20205;-59
2020/12/20 01:09:45;;;;;;;33.30;25.48;;;;;;;;;;4998653;28;20183;-59
2020/12/20 01:12:11;;;;;;;31.87;23.60;;;;;;;;;;5008388;28;20700;-59
2020/12/20 01:14:36;;;;;;;31.58;23.65;;;;;;;;;;4999375;28;20204;-59
2020/12/20 01:17:04;;;;;;;32.80;24.25;;;;;;;;;;4996396;28;20222;-59
2020/12/20 01:19:29;;;;;;;29.03;21.93;;;;;;;;;;5003280;28;20188;-58
2020/12/20 01:21:54;;;;;;;32.47;25.20;;;;;;;;;;5006196;28;20630;-59
2020/12/20 01:24:19;;;;;;;32.70;25.27;;;;;;;;;;4995464;28;20545;-59
2020/12/20 01:26:44;;;;;;;34.00;23.95;;;;;;;;;;5008493;28;20919;-58
2020/12/20 01:29:10;;;;;;;34.97;25.07;;;;;;;;;;5005475;28;20182;-58
2020/12/20 01:31:35;;;;;;;29.00;23.70;;;;;;;;;;5002343;28;20228;-59
2020/12/20 01:34:02;;;;;;;30.60;22.88;;;;;;;;;;5010226;28;20740;-59
2020/12/20 01:36:29;;;;;;;31.93;23.70;;;;;;;;;;5002083;28;20645;-58
2020/12/20 01:38:55;;;;;;;27.77;22.07;;;;;;;;;;5009274;28;20598;-58
2020/12/20 01:41:20;;;;;;;34.33;24.57;;;;;;;;;;4990797;28;20600;-59
2020/12/20 01:43:46;;;;;;;29.23;22.50;;;;;;;;;;5010174;28;20241;-59
2020/12/20 01:46:12;;;;;;;35.20;25.23;;;;;;;;;;4996747;28;20205;-58
2020/12/20 01:48:38;;;;;;;33.10;24.43;;;;;;;;;;5006288;28;20696;-58
2020/12/20 01:51:03;;;;;;;33.30;23.60;;;;;;;;;;5007073;28;21311;-59
2020/12/20 01:53:29;;;;;;;35.70;25.20;;;;;;;;;;4996623;28;20182;-58
2020/12/20 01:55:58;;;;;;;31.80;24.50;;;;;;;;;;5001598;28;20672;-58
2020/12/20 01:58:23;;;;;;;35.00;24.73;;;;;;;;;;5002626;28;20176;-58
2020/12/20 02:00:48;;;;;;;33.50;23.58;;;;;;;;;;5005086;28;21379;-59
2020/12/20 02:03:13;;;;;;;29.33;21.60;;;;;;;;;;4997488;28;20271;-58
2020/12/20 02:05:39;;;;;;;31.70;23.27;;;;;;;;;;5006439;28;20205;-59
2020/12/20 02:08:04;;;;;;;29.83;22.45;;;;;;;;;;5001786;28;20184;-58
2020/12/20 02:10:29;;;;;;;28.98;21.85;;;;;;;;;;5000202;28;20214;-58
2020/12/20 02:13:00;;;;;;;34.17;23.73;;;;;;;;;;5004202;28;20224;-58
2020/12/20 02:15:25;;;;;;;31.00;24.07;;;;;;;;;;5006588;28;20312;-59
2020/12/20 02:17:50;;;;;;;30.55;23.55;;;;;;;;;;4996242;28;20602;-57
2020/12/20 02:20:15;;;;;;;30.20;22.58;;;;;;;;;;4998133;28;20175;-58
2020/12/20 02:22:41;;;;;;;32.30;22.48;;;;;;;;;;5003869;28;20171;-57
2020/12/20 02:25:06;;;;;;;32.27;23.97;;;;;;;;;;4999011;28;20265;-58
2020/12/20 02:27:31;;;;;;;31.95;23.48;;;;;;;;;;4994663;28;20183;-58
2020/12/20 02:29:56;;;;;;;32.42;23.73;;;;;;;;;;4995394;28;20341;-58
2020/12/20 02:32:21;;;;;;;30.77;22.73;;;;;;;;;;5018957;28;20184;-59
2020/12/20 02:34:46;;;;;;;29.50;22.10;;;;;;;;;;5011599;28;20675;-59
2020/12/20 02:37:12;;;;;;;29.85;23.13;;;;;;;;;;5000134;28;20541;-59
2020/12/20 02:39:39;;;;;;;26.80;20.70;;;;;;;;;;5003666;28;20694;-57
2020/12/20 02:42:04;;;;;;;30.40;24.30;;;;;;;;;;5003745;28;20188;-58
2020/12/20 02:44:29;;;;;;;29.42;21.48;;;;;;;;;;5005455;28;20629;-58
2020/12/20 02:46:54;;;;;;;33.00;24.20;;;;;;;;;;5001302;28;20244;-58
2020/12/20 02:49:19;;;;;;;28.10;22.42;;;;;;;;;;5006726;28;20179;-58
2020/12/20 02:51:44;;;;;;;31.98;24.77;;;;;;;;;;5006318;28;20186;-58
2020/12/20 02:54:10;;;;;;;30.67;23.55;;;;;;;;;;5009308;28;20204;-58
2020/12/20 02:56:40;;;;;;;31.97;24.30;;;;;;;;;;5004096;28;20217;-58
2020/12/20 02:59:05;;;;;;;34.43;24.23;;;;;;;;;;5001948;28;20169;-58
2020/12/20 03:01:31;;;;;;;31.10;23.65;;;;;;;;;;5012116;28;20613;-59
2020/12/20 03:03:56;;;;;;;31.97;25.27;;;;;;;;;;5011849;28;20266;-59
2020/12/20 03:06:21;;;;;;;31.42;22.52;;;;;;;;;;5004258;28;20619;-59
2020/12/20 03:08:46;;;;;;;30.10;23.53;;;;;;;;;;5008984;28;20207;-58
2020/12/20 03:11:11;;;;;;;30.73;24.10;;;;;;;;;;5001678;28;20327;-59
2020/12/20 03:13:36;;;;;;;32.08;25.42;;;;;;;;;;5006017;28;20174;-58
2020/12/20 03:16:01;;;;;;;32.67;25.73;;;;;;;;;;5009850;28;20211;-58
2020/12/20 03:18:27;;;;;;;36.13;26.07;;;;;;;;;;5002522;28;20170;-58
2020/12/20 03:20:53;;;;;;;33.43;24.80;;;;;;;;;;5004996;28;20168;-58
2020/12/20 03:23:18;;;;;;;31.80;24.93;;;;;;;;;;5009112;28;20178;-58
2020/12/20 03:25:43;;;;;;;32.13;23.23;;;;;;;;;;4995024;28;20707;-58
2020/12/20 03:28:09;;;;;;;30.17;23.33;;;;;;;;;;5005294;28;20185;-58
2020/12/20 03:30:34;;;;;;;32.05;23.05;;;;;;;;;;5013163;28;20220;-58
2020/12/20 03:32:59;;;;;;;29.00;22.13;;;;;;;;;;5011159;28;20219;-58
2020/12/20 03:35:24;;;;;;;30.63;23.13;;;;;;;;;;5011435;28;20214;-58
2020/12/20 03:37:50;;;;;;;29.87;21.83;;;;;;;;;;5012774;28;20674;-57
2020/12/20 03:40:16;;;;;;;30.13;22.57;;;;;;;;;;5010008;28;20175;-58
2020/12/20 03:42:41;;;;;;;35.20;22.73;;;;;;;;;;4999167;28;21208;-58
2020/12/20 03:45:06;;;;;;;30.77;21.20;;;;;;;;;;5010879;28;20180;-58
2020/12/20 03:47:31;;;;;;;27.92;21.08;;;;;;;;;;5011391;28;20201;-58
2020/12/20 03:49:56;;;;;;;26.10;19.23;;;;;;;;;;5005616;28;20545;-58
2020/12/20 03:52:21;;;;;;;26.10;20.02;;;;;;;;;;5000859;28;20179;-58
2020/12/20 03:54:47;;;;;;;26.00;17.08;;;;;;;;;;5007841;28;20241;-58
2020/12/20 03:57:12;;;;;;;22.20;17.00;;;;;;;;;;5002928;28;20595;-57
2020/12/20 03:59:39;;;;;;;18.83;14.95;;;;;;;;;;5005350;28;20653;-59
2020/12/20 04:02:04;;;;;;;18.33;14.50;;;;;;;;;;5007704;28;20246;-58
2020/12/20 04:04:29;;;;;;;17.30;14.03;;;;;;;;;;5007177;28;20611;-58
2020/12/20 04:06:54;;;;;;;14.77;12.43;;;;;;;;;;5000834;28;20224;-58
2020/12/20 04:09:19;;;;;;;17.98;14.00;;;;;;;;;;5004086;28;20550;-58
2020/12/20 04:11:45;;;;;;;13.32;11.65;;;;;;;;;;4995341;28;20172;-58
2020/12/20 04:14:10;;;;;;;14.82;11.48;;;;;;;;;;5001590;28;20276;-59
2020/12/20 04:16:35;;;;;;;14.95;12.32;;;;;;;;;;5007665;28;20605;-58
2020/12/20 04:19:00;;;;;;;15.15;13.00;;;;;;;;;;5016564;28;20176;-59
2020/12/20 04:21:25;;;;;;;15.38;12.25;;;;;;;;;;5008085;28;20203;-58
2020/12/20 04:23:50;;;;;;;17.25;12.40;;;;;;;;;;5017594;28;20203;-58
2020/12/20 04:26:15;;;;;;;18.13;13.30;;;;;;;;;;5018839;28;20221;-58
2020/12/20 04:28:41;;;;;;;15.15;12.45;;;;;;;;;;5017899;28;20209;-57
2020/12/20 04:31:06;;;;;;;17.30;12.07;;;;;;;;;;5012686;28;20240;-57
2020/12/20 04:33:31;;;;;;;16.15;13.02;;;;;;;;;;5020707;28;20254;-58
2020/12/20 04:35:56;;;;;;;17.42;12.93;;;;;;;;;;5019469;28;20593;-58
2020/12/20 04:38:21;;;;;;;14.32;11.70;;;;;;;;;;5016566;28;20164;-58
2020/12/20 04:40:46;;;;;;;14.45;12.05;;;;;;;;;;5015953;28;20198;-58
2020/12/20 04:43:12;;;;;;;18.30;14.10;;;;;;;;;;5008413;28;20171;-58
2020/12/20 04:45:37;;;;;;;14.53;12.23;;;;;;;;;;5012362;28;20177;-57
2020/12/20 04:48:03;;;;;;;15.77;12.10;;;;;;;;;;5005854;28;20187;-57
2020/12/20 04:50:28;;;;;;;14.70;12.37;;;;;;;;;;5021057;28;20174;-58
2020/12/20 04:52:54;;;;;;;14.57;12.00;;;;;;;;;;5005148;28;20228;-57
2020/12/20 04:55:23;;;;;;;12.87;10.57;;;;;;;;;;5008814;28;20222;-58
2020/12/20 04:57:49;;;;;;;15.50;12.57;;;;;;;;;;5025668;28;20611;-58
2020/12/20 05:00:15;;;;;;;15.33;11.87;;;;;;;;;;5015945;28;20601;-59
2020/12/20 05:02:40;;;;;;;16.57;11.93;;;;;;;;;;5019411;28;20600;-57
2020/12/20 05:05:05;;;;;;;13.93;11.10;;;;;;;;;;5013999;28;20270;-58
2020/12/20 05:07:31;;;;;;;16.83;13.38;;;;;;;;;;5010941;28;20175;-57
2020/12/20 05:09:56;;;;;;;16.37;11.87;;;;;;;;;;5016807;28;20598;-57
2020/12/20 05:12:22;;;;;;;14.70;12.37;;;;;;;;;;5006242;28;20602;-57
2020/12/20 05:14:47;;;;;;;14.73;12.07;;;;;;;;;;5014406;28;20195;-58
2020/12/20 05:17:16;;;;;;;14.85;12.02;;;;;;;;;;5001475;28;20178;-57
2020/12/20 05:19:41;;;;;;;15.40;12.23;;;;;;;;;;5002195;28;20680;-58
2020/12/20 05:22:16;;;;;;;15.70;12.85;;;;;;;;;;5019449;28;20587;-57
2020/12/20 05:24:41;;;;;;;16.23;12.47;;;;;;;;;;5013021;28;20200;-58
2020/12/20 05:27:18;;;;;;;15.90;12.07;;;;;;;;;;5012561;28;21007;-58
2020/12/20 05:29:43;;;;;;;15.53;12.33;;;;;;;;;;5017617;28;20177;-58
2020/12/20 05:32:22;;;;;;;17.27;13.20;;;;;;;;;;5010877;28;20605;-58
2020/12/20 05:34:57;;;;;;;14.50;12.60;;;;;;;;;;5002924;28;20223;-58
2020/12/20 05:37:26;;;;;;;15.20;13.17;;;;;;;;;;5002783;28;20991;-58
2020/12/20 05:39:51;;;;;;;15.07;12.03;;;;;;;;;;5012225;28;20586;-57
2020/12/20 05:42:17;;;;;;;16.80;13.55;;;;;;;;;;5004493;28;20593;-57
2020/12/20 05:44:43;;;;;;;14.70;12.57;;;;;;;;;;5010736;28;20186;-57
2020/12/20 05:47:08;;;;;;;17.27;13.90;;;;;;;;;;5017499;28;20604;-57
2020/12/20 05:49:37;;;;;;;16.42;13.80;;;;;;;;;;5011348;28;20274;-58
2020/12/20 05:52:09;;;;;;;15.80;12.60;;;;;;;;;;5013428;28;20664;-58
2020/12/20 05:54:39;;;;;;;17.90;13.23;;;;;;;;;;5016820;28;20649;-57
2020/12/20 05:57:05;;;;;;;14.77;12.90;;;;;;;;;;5008884;28;20605;-58
2020/12/20 05:59:30;;;;;;;20.03;13.77;;;;;;;;;;5005031;28;20606;-57
2020/12/20 06:01:56;;;;;;;17.80;14.03;;;;;;;;;;5004844;28;20994;-57
2020/12/20 06:04:21;;;;;;;18.57;14.47;;;;;;;;;;5011486;28;20180;-58
2020/12/20 06:06:49;;;;;;;16.50;13.63;;;;;;;;;;5010253;28;20612;-57
2020/12/20 06:09:16;;;;;;;17.03;13.27;;;;;;;;;;5010196;28;20264;-57
2020/12/20 06:11:42;;;;;;;17.43;13.73;;;;;;;;;;5008782;28;20738;-57
2020/12/20 06:14:08;;;;;;;15.70;12.03;;;;;;;;;;5016713;28;21100;-58
2020/12/20 06:16:35;;;;;;;18.17;14.10;;;;;;;;;;5003618;28;20644;-57
2020/12/20 06:19:02;;;;;;;16.80;12.83;;;;;;;;;;5007882;28;21162;-58
2020/12/20 06:21:36;;;;;;;15.63;13.33;;;;;;;;;;5006108;28;20662;-57
2020/12/20 06:24:05;;;;;;;15.03;12.33;;;;;;;;;;5011251;28;20635;-58
2020/12/20 06:26:33;;;;;;;15.97;12.70;;;;;;;;;;5006113;28;20712;-57
2020/12/20 06:29:02;;;;;;;15.87;13.47;;;;;;;;;;5011553;28;20603;-56
2020/12/20 06:31:29;;;;;;;15.57;12.83;;;;;;;;;;5012646;28;20592;-58
2020/12/20 06:33:54;;;;;;;19.30;14.20;;;;;;;;;;5015761;28;20642;-57
2020/12/20 06:36:20;;;;;;;17.70;13.93;;;;;;;;;;5003668;28;20694;-57
2020/12/20 06:38:52;;;;;;;14.37;12.87;;;;;;;;;;5012894;28;20255;-60
2020/12/20 06:41:49;;;;;;;17.27;13.27;;;;;;;;;;5010204;28;20707;-57
2020/12/20 06:44:15;;;;;;;15.20;11.83;;;;;;;;;;4985770;28;20719;-57
2020/12/20 06:46:41;;;;;;;16.33;12.93;;;;;;;;;;5000153;28;21037;-57
2020/12/20 06:49:26;;;;;;;16.83;13.63;;;;;;;;;;5011374;28;21212;-57
2020/12/20 06:52:11;;;;;;;17.03;13.40;;;;;;;;;;5000004;28;20211;-57
2020/12/20 06:54:36;;;;;;;15.23;13.23;;;;;;;;;;4999939;28;20648;-57
2020/12/20 06:57:08;;;;;;;13.85;12.10;;;;;;;;;;4999662;28;20607;-57
2020/12/20 06:59:45;;;;;;;17.40;13.13;;;;;;;;;;5013282;28;20176;-57
2020/12/20 07:02:30;;;;;;;16.30;13.30;;;;;;;;;;5006777;28;21181;-57
2020/12/20 07:04:56;;;;;;;15.90;12.23;;;;;;;;;;5002705;28;21190;-57
2020/12/20 07:07:21;;;;;;;16.02;11.98;;;;;;;;;;5012098;28;20959;-57
2020/12/20 07:09:46;;;;;;;17.30;14.00;;;;;;;;;;5005123;28;20246;-57
2020/12/20 07:12:30;;;;;;;15.57;12.93;;;;;;;;;;5010528;28;20669;-57
2020/12/20 07:14:55;;;;;;;16.63;13.20;;;;;;;;;;5011294;28;20287;-57
2020/12/20 07:17:24;;;;;;;15.20;12.20;;;;;;;;;;5009059;28;20692;-57
2020/12/20 07:20:08;;;;;;;15.80;12.77;;;;;;;;;;5009064;28;20189;-58
2020/12/20 07:22:33;;;;;;;16.53;14.23;;;;;;;;;;5018048;28;20614;-57
2020/12/20 07:24:59;;;;;;;16.88;13.80;;;;;;;;;;5003130;28;20732;-57
2020/12/20 07:27:25;;;;;;;17.67;12.47;;;;;;;;;;5008466;28;20207;-57
2020/12/20 07:29:51;;;;;;;16.23;13.03;;;;;;;;;;5015990;28;20608;-58
2020/12/20 07:32:16;;;;;;;17.70;14.37;;;;;;;;;;5000046;28;20209;-57
2020/12/20 07:34:45;;;;;;;16.55;12.75;;;;;;;;;;5012954;28;20205;-57
2020/12/20 07:37:12;;;;;;;16.53;12.63;;;;;;;;;;5013723;28;20205;-57
2020/12/20 07:39:37;;;;;;;15.20;12.47;;;;;;;;;;5010784;28;21166;-57
2020/12/20 07:42:02;;;;;;;18.70;13.97;;;;;;;;;;5006559;28;20679;-57
2020/12/20 07:44:27;;;;;;;15.05;12.55;;;;;;;;;;5007557;28;20177;-58
2020/12/20 07:46:52;;;;;;;15.80;13.77;;;;;;;;;;5017476;28;20174;-58
2020/12/20 07:49:17;;;;;;;14.77;13.00;;;;;;;;;;5007128;28;20188;-57
2020/12/20 07:51:43;;;;;;;16.35;13.00;;;;;;;;;;5006734;28;20249;-57
2020/12/20 07:54:09;;;;;;;15.53;13.83;;;;;;;;;;5013280;28;20206;-57
2020/12/20 07:56:36;;;;;;;15.07;13.10;;;;;;;;;;5009442;28;20194;-58
2020/12/20 07:59:04;;;;;;;16.60;14.10;;;;;;;;;;5018092;28;20985;-58
2020/12/20 08:01:30;;;;;;;13.83;11.73;;;;;;;;;;5014473;28;20593;-58
2020/12/20 08:04:08;;;;;;;15.00;12.80;;;;;;;;;;5006750;28;20663;-58
2020/12/20 08:06:36;;;;;;;16.13;13.80;;;;;;;;;;5019243;28;20568;-59
2020/12/20 08:09:25;;;;;;;17.23;14.20;;;;;;;;;;5018234;28;20666;-59
2020/12/20 08:11:51;;;;;;;16.73;13.97;;;;;;;;;;4993177;28;20603;-58
2020/12/20 08:14:17;;;;;;;17.20;12.57;;;;;;;;;;5003819;28;20744;-58
2020/12/20 08:16:46;;;;;;;14.47;12.80;;;;;;;;;;5010466;28;20600;-59
2020/12/20 08:19:19;;;;;;;16.50;14.00;;;;;;;;;;5009115;28;20626;-59
2020/12/20 08:22:02;;;;;;;17.13;14.47;;;;;;;;;;5010125;28;21156;-59
2020/12/20 08:24:50;;;;;;;17.30;13.67;;;;;;;;;;5008788;28;20617;-59
2020/12/20 08:27:18;;;;;;;15.47;13.87;;;;;;;;;;5005088;28;20682;-59
2020/12/20 08:29:44;;;;;;;16.70;13.67;;;;;;;;;;5015730;28;20614;-58
2020/12/20 08:32:17;;;;;;;17.20;13.90;;;;;;;;;;5009669;28;20962;-59
2020/12/20 08:34:42;;;;;;;16.63;13.93;;;;;;;;;;5004947;28;20203;-59
2020/12/20 08:37:08;;;;;;;14.80;12.67;;;;;;;;;;5017816;28;20674;-58
2020/12/20 08:39:33;;;;;;;15.93;13.00;;;;;;;;;;5010263;28;20174;-59
2020/12/20 08:42:00;;;;;;;16.97;13.23;;;;;;;;;;5006942;28;20605;-59
2020/12/20 08:44:26;;;;;;;15.73;12.83;;;;;;;;;;5020002;28;20611;-59
2020/12/20 08:46:51;;;;;;;17.57;13.63;;;;;;;;;;5007693;28;20600;-59
2020/12/20 08:49:20;;;;;;;16.98;13.82;;;;;;;;;;5022111;28;20604;-59
2020/12/20 08:51:49;;;;;;;15.83;13.93;;;;;;;;;;5019812;28;20552;-59
2020/12/20 08:54:27;;;;;;;16.63;13.17;;;;;;;;;;5016507;28;20635;-59
2020/12/20 08:56:57;;;;;;;14.60;13.10;;;;;;;;;;5018780;28;20603;-59
2020/12/20 08:59:32;;;;;;;15.80;14.00;;;;;;;;;;5018936;28;20626;-59
2020/12/20 09:01:58;;;;;;;15.50;13.23;;;;;;;;;;5021712;28;20607;-58
2020/12/20 09:04:24;;;;;;;17.87;14.90;;;;;;;;;;5010332;28;20594;-56
2020/12/20 09:06:56;;;;;;;16.63;14.33;;;;;;;;;;5021070;28;20187;-57
2020/12/20 09:09:22;;;;;;;16.53;14.27;;;;;;;;;;5018701;28;20545;-56
2020/12/20 09:11:47;;;;;;;15.13;13.50;;;;;;;;;;5024482;28;20602;-56
2020/12/20 09:14:13;;;;;;;15.30;13.20;;;;;;;;;;5016815;28;20709;-58
2020/12/20 09:16:39;;;;;;;14.70;12.97;;;;;;;;;;5018561;28;20529;-58
2020/12/20 09:19:08;;;;;;;15.83;14.20;;;;;;;;;;5019393;28;20619;-57
2020/12/20 09:21:33;;;;;;;14.93;13.40;;;;;;;;;;5016837;28;20654;-57
2020/12/20 09:23:58;;;;;;;16.77;13.95;;;;;;;;;;5016439;28;20620;-57
2020/12/20 09:26:24;;;;;;;15.80;14.17;;;;;;;;;;5004809;28;20315;-57
2020/12/20 09:28:49;;;;;;;15.70;14.03;;;;;;;;;;5023525;28;20177;-57
2020/12/20 09:31:18;;;;;;;15.57;12.85;;;;;;;;;;5019096;28;20184;-58
2020/12/20 09:33:47;;;;;;;15.07;13.07;;;;;;;;;;5019153;28;20173;-57
2020/12/20 09:36:39;;;;;;;14.27;12.70;;;;;;;;;;5020005;28;20630;-58
2020/12/20 09:39:05;;;;;;;16.83;13.97;;;;;;;;;;5012698;28;20615;-57
2020/12/20 09:41:32;;;;;;;16.50;14.50;;;;;;;;;;5020199;28;20593;-57
2020/12/20 09:43:59;;;;;;;15.70;14.13;;;;;;;;;;5020245;28;20183;-57
2020/12/20 09:46:25;;;;;;;15.10;13.50;;;;;;;;;;5019081;28;21080;-57
2020/12/20 09:48:51;;;;;;;15.90;14.13;;;;;;;;;;5018116;28;20611;-57
2020/12/20 09:51:17;;;;;;;16.37;14.10;;;;;;;;;;5017384;28;21145;-57
2020/12/20 09:53:42;;;;;;;16.90;15.10;;;;;;;;;;5020079;28;20595;-58
2020/12/20 09:56:07;;;;;;;15.55;14.00;;;;;;;;;;5019475;28;20180;-57
2020/12/20 09:58:32;;;;;;;16.87;15.07;;;;;;;;;;5018194;28;20177;-57
2020/12/20 10:00:57;;;;;;;16.10;14.07;;;;;;;;;;5017693;28;20177;-57
2020/12/20 10:03:24;;;;;;;17.47;14.20;;;;;;;;;;5009808;28;20257;-58
2020/12/20 10:05:50;;;;;;;15.27;13.67;;;;;;;;;;5015670;28;20169;-57
2020/12/20 10:08:15;;;;;;;14.27;12.77;;;;;;;;;;5017341;28;20615;-57
2020/12/20 10:10:41;;;;;;;16.83;14.97;;;;;;;;;;5019892;28;20177;-57
2020/12/20 10:13:06;;;;;;;15.20;13.60;;;;;;;;;;5014788;28;20597;-58
2020/12/20 10:15:31;;;;;;;15.43;13.60;;;;;;;;;;5014826;28;20702;-58
2020/12/20 10:17:58;;;;;;;15.97;14.17;;;;;;;;;;5017403;28;20185;-58
2020/12/20 10:20:23;;;;;;;15.60;14.03;;;;;;;;;;5017054;28;20181;-57
2020/12/20 10:22:48;;;;;;;16.02;14.32;;;;;;;;;;5016976;28;20593;-57
2020/12/20 10:25:14;;;;;;;16.57;14.87;;;;;;;;;;5007933;28;20205;-58
2020/12/20 10:27:39;;;;;;;17.23;15.40;;;;;;;;;;5015120;28;20225;-57
2020/12/20 10:30:07;;;;;;;16.83;15.07;;;;;;;;;;5020615;28;20218;-57
2020/12/20 10:32:32;;;;;;;15.97;14.37;;;;;;;;;;5019150;28;20237;-58
2020/12/20 10:34:57;;;;;;;15.57;14.02;;;;;;;;;;5007575;28;20648;-58
2020/12/20 10:37:23;;;;;;;16.13;14.52;;;;;;;;;;5016951;28;20202;-57
2020/12/20 10:39:48;;;;;;;15.75;14.10;;;;;;;;;;5016847;28;20209;-57
2020/12/20 10:42:14;;;;;;;15.85;14.35;;;;;;;;;;5016989;28;20197;-58
2020/12/20 10:44:39;;;;;;;16.60;14.90;;;;;;;;;;5005934;28;20178;-58
2020/12/20 10:47:05;;;;;;;16.70;14.63;;;;;;;;;;5020381;28;20603;-57
2020/12/20 10:49:30;;;;;;;16.30;14.60;;;;;;;;;;5016911;28;20663;-57
2020/12/20 10:51:55;;;;;;;17.40;15.60;;;;;;;;;;5019663;28;20669;-57
2020/12/20 10:54:20;;;;;;;15.70;14.10;;;;;;;;;;5014271;28;20193;-57
2020/12/20 10:56:49;;;;;;;18.17;15.53;;;;;;;;;;5014628;28;20204;-57
2020/12/20 10:59:14;;;;;;;17.70;15.90;;;;;;;;;;5016784;28;20638;-57
2020/12/20 11:01:39;;;;;;;17.17;15.47;;;;;;;;;;5016756;28;20593;-57
2020/12/20 11:04:05;;;;;;;17.50;15.80;;;;;;;;;;5018268;28;20180;-58
2020/12/20 11:06:30;;;;;;;16.33;14.70;;;;;;;;;;5018121;28;20177;-58
2020/12/20 11:08:55;;;;;;;18.20;16.30;;;;;;;;;;5017212;28;20196;-58
2020/12/20 11:11:27;;;;;;;17.23;15.47;;;;;;;;;;5014296;28;20255;-58
2020/12/20 11:13:52;;;;;;;18.27;16.37;;;;;;;;;;5014406;28;20184;-58
2020/12/20 11:16:18;;;;;;;17.10;15.40;;;;;;;;;;5018340;28;20626;-58
2020/12/20 11:18:44;;;;;;;17.10;15.37;;;;;;;;;;5022543;28;20679;-58
2020/12/20 11:21:16;;;;;;;18.17;16.27;;;;;;;;;;5020847;28;20176;-58
2020/12/20 11:23:42;;;;;;;17.90;16.10;;;;;;;;;;5010696;28;20185;-58
2020/12/20 11:26:11;;;;;;;17.03;15.20;;;;;;;;;;5018916;28;20655;-58
2020/12/20 11:28:36;;;;;;;18.10;16.20;;;;;;;;;;5019164;28;20596;-59
2020/12/20 11:31:01;;;;;;;16.73;15.03;;;;;;;;;;5021213;28;20642;-59
2020/12/20 11:33:27;;;;;;;17.00;15.40;;;;;;;;;;5023616;28;20180;-58
2020/12/20 11:35:52;;;;;;;17.67;15.90;;;;;;;;;;5018807;28;20201;-58
2020/12/20 11:38:17;;;;;;;18.70;16.80;;;;;;;;;;5009569;28;20179;-57
2020/12/20 11:40:42;;;;;;;18.30;16.53;;;;;;;;;;5023534;28;20650;-58
2020/12/20 11:43:07;;;;;;;18.50;16.70;;;;;;;;;;5020420;28;20216;-58
2020/12/20 11:45:33;;;;;;;18.77;16.33;;;;;;;;;;5019995;28;20183;-58
2020/12/20 11:47:58;;;;;;;17.75;16.05;;;;;;;;;;5010362;28;20237;-58
2020/12/20 11:50:23;;;;;;;17.97;16.20;;;;;;;;;;5023035;28;20216;-58
2020/12/20 11:52:48;;;;;;;17.77;15.95;;;;;;;;;;5023177;28;20378;-58
2020/12/20 11:55:13;;;;;;;18.80;16.90;;;;;;;;;;5017754;28;20286;-58
2020/12/20 11:57:38;;;;;;;19.37;17.40;;;;;;;;;;5019669;28;20666;-58
2020/12/20 12:00:04;;;;;;;19.85;17.83;;;;;;;;;;5010041;28;20186;-58
2020/12/20 12:02:31;;;;;;;20.90;18.73;;;;;;;;;;5014324;28;20172;-58
2020/12/20 12:04:56;;;;;;;17.60;15.90;;;;;;;;;;5012813;28;20174;-59
2020/12/20 12:07:21;;;;;;;20.47;18.37;;;;;;;;;;5019582;28;20610;-58
2020/12/20 12:09:46;;;;;;;19.83;17.73;;;;;;;;;;5006713;28;20188;-59
2020/12/20 12:12:11;;;;;;;19.92;17.63;;;;;;;;;;5020881;28;20898;-59
2020/12/20 12:14:36;;;;;;;20.00;17.85;;;;;;;;;;5018710;28;20210;-58
2020/12/20 12:17:02;;;;;;;19.60;17.67;;;;;;;;;;5016153;28;20176;-58
2020/12/20 12:19:27;;;;;;;20.13;17.58;;;;;;;;;;5005617;28;20169;-58
2020/12/20 12:21:52;;;;;;;18.43;16.50;;;;;;;;;;5019853;28;20186;-59
2020/12/20 12:24:17;;;;;;;16.80;15.07;;;;;;;;;;5016616;28;20773;-58
2020/12/20 12:26:45;;;;;;;19.63;17.58;;;;;;;;;;5012497;28;21033;-59
2020/12/20 12:29:11;;;;;;;19.57;17.57;;;;;;;;;;5020092;28;20177;-59
2020/12/20 12:31:36;;;;;;;19.73;17.73;;;;;;;;;;5015118;28;21183;-59
2020/12/20 12:34:01;;;;;;;21.83;18.50;;;;;;;;;;5013007;28;20177;-57
2020/12/20 12:36:27;;;;;;;21.25;18.98;;;;;;;;;;5016420;28;20229;-58
2020/12/20 12:38:55;;;;;;;21.47;18.50;;;;;;;;;;5015704;28;20187;-57
2020/12/20 12:41:30;;;;;;;21.30;18.80;;;;;;;;;;5016022;28;20601;-58
2020/12/20 12:43:55;;;;;;;19.70;16.47;;;;;;;;;;5011566;28;20613;-58
2020/12/20 12:46:21;;;;;;;18.23;16.30;;;;;;;;;;5009170;28;20945;-58
2020/12/20 12:48:46;;;;;;;19.60;17.60;;;;;;;;;;5017247;28;20173;-59
2020/12/20 12:51:11;;;;;;;19.77;17.42;;;;;;;;;;5015589;28;20208;-59
2020/12/20 12:53:36;;;;;;;21.08;17.70;;;;;;;;;;5018399;28;20196;-59
2020/12/20 12:56:11;;;;;;;18.43;16.20;;;;;;;;;;5011363;28;20618;-58
2020/12/20 12:58:36;;;;;;;21.43;18.87;;;;;;;;;;5018662;28;20188;-58
2020/12/20 13:01:02;;;;;;;19.87;17.83;;;;;;;;;;5014936;28;20607;-58
2020/12/20 13:03:27;;;;;;;18.50;16.60;;;;;;;;;;5010588;28;20178;-58
2020/12/20 13:05:52;;;;;;;18.88;17.02;;;;;;;;;;5009389;28;20178;-58
2020/12/20 13:08:17;;;;;;;20.20;17.80;;;;;;;;;;5009727;28;20187;-58
2020/12/20 13:10:45;;;;;;;18.27;16.35;;;;;;;;;;5013393;28;20187;-57
2020/12/20 13:13:10;;;;;;;20.30;17.87;;;;;;;;;;5019972;28;20659;-57
2020/12/20 13:15:35;;;;;;;19.52;17.42;;;;;;;;;;5018121;28;21318;-57
2020/12/20 13:18:01;;;;;;;18.58;16.35;;;;;;;;;;5007231;28;20663;-58
2020/12/20 13:20:26;;;;;;;19.73;17.00;;;;;;;;;;5008620;28;20180;-58
2020/12/20 13:22:51;;;;;;;19.33;17.27;;;;;;;;;;5011382;28;20177;-58
2020/12/20 13:25:16;;;;;;;19.10;16.88;;;;;;;;;;5002158;28;20201;-58
2020/12/20 13:27:43;;;;;;;19.00;16.92;;;;;;;;;;5012770;28;20562;-57
2020/12/20 13:30:08;;;;;;;18.17;16.27;;;;;;;;;;5002271;28;20192;-58
2020/12/20 13:32:33;;;;;;;19.25;16.75;;;;;;;;;;5015420;28;20594;-57
2020/12/20 13:35:00;;;;;;;17.85;15.27;;;;;;;;;;5010649;28;20200;-57
2020/12/20 13:37:25;;;;;;;18.17;15.90;;;;;;;;;;5015838;28;20173;-57
2020/12/20 13:39:50;;;;;;;18.15;16.00;;;;;;;;;;5019444;28;20601;-58
2020/12/20 13:42:16;;;;;;;18.70;16.43;;;;;;;;;;5015604;28;20211;-58
2020/12/20 13:44:41;;;;;;;18.40;16.40;;;;;;;;;;5011710;28;20231;-58
2020/12/20 13:47:06;;;;;;;18.77;16.00;;;;;;;;;;5020845;28;20607;-57
2020/12/20 13:49:31;;;;;;;17.33;15.25;;;;;;;;;;5012560;28;20183;-58
2020/12/20 13:51:57;;;;;;;17.37;15.57;;;;;;;;;;5022222;28;20519;-57
2020/12/20 13:54:22;;;;;;;18.13;15.50;;;;;;;;;;5013817;28;20202;-57
2020/12/20 13:56:47;;;;;;;16.13;14.53;;;;;;;;;;5017730;28;20287;-57
2020/12/20 13:59:12;;;;;;;16.60;14.70;;;;;;;;;;5015383;28;20262;-59
2020/12/20 14:01:37;;;;;;;18.13;16.07;;;;;;;;;;5020613;28;20187;-57
2020/12/20 14:04:03;;;;;;;17.23;15.40;;;;;;;;;;5009485;28;20267;-57
2020/12/20 14:06:28;;;;;;;17.23;14.43;;;;;;;;;;5016617;28;20176;-58
2020/12/20 14:08:54;;;;;;;16.40;14.70;;;;;;;;;;5010469;28;20165;-58
2020/12/20 14:11:19;;;;;;;15.60;14.00;;;;;;;;;;5013005;28;20195;-58
2020/12/20 14:13:44;;;;;;;13.90;12.40;;;;;;;;;;5014069;28;20215;-57